Aérodrome :
LOGIN :

S'inscrire | Disclaimer

   EN    FR    IT 

 










Légende :    VFR   VFR Marginal   IFR   IFR Intensif   IFR Très Intensif
Visi : 
Plafond : 
>= 8 km
>= 3000ft
5 à 8 km
1000 à 3000 ft
1500m à 5 km
500 à 1000 ft
800 à 1500m
200 à 500 ft
< 800m
< 200 ft
Symboles :   Orages  Brouillard  Fortes neiges  Fortes précipitations  Vent > 20 kt
SIGMETs :   Divers  Orages  Givrage  Turbulence  Onde Orograph.  Cendres Volcan.







- Altitude de l'aérodrome : 106 ft
- Code IATA : NRN


EDLV - Weeze

DERNIER METAR :
  • 131820Z 18011KT 150V210 9000 BKN008 05/05 Q0991

METARs EXPIRÉS :
  • 131750Z 17010KT 140V200 9000 BKN009 05/05 Q0992
  • 131720Z 18010KT 9999 BKN009 05/05 Q0993
  • 131650Z 19011KT 150V210 9999 SCT007 BKN025 05/05 Q0994
  • 131620Z 19010KT 9999 SCT007 BKN030 05/05 Q0995
  • 131550Z 20011KT 9999 SCT009 BKN030 05/04 Q0995

TAF TAF EDLV
Valide du 13 à 18h jusqu'au 14 à 18h UTC


131700Z 1318/1418 20012KT 9999 BKN008
TEMPO 1318/1320 20015G25KT
TEMPO 1318/1322 3500 RA BKN004
BECMG 1320/1323 24020G35KT
BECMG 1402/1405 23015G25KT BKN012
TEMPO 1402/1405 SHRASN BKN008CB
BECMG 1414/1417 21009KT SCT015
Pas de NOTAMs connus pour ce terrain.



MET'MAP, la Météo Aéronautique d'un coup d'oeil ! - Copyright ORBIFLY Décembre 2007 - Disclaimer

ORBIFLY MET'MAP TEAM :

Programmation & Développement : Alexandra Zaïnal
Conception & Développement : Baudouin d'Aumeries
Co-Programmation & Développement : Marc-Olivier Méhu
Soutien technique & logistique : Manuel Goepfert

Contact : metmap@orbifly.com




SOURCES & CREDITS :

   NOAA